Time;durP1;ratioP1;P1;durP2;ratioP2;P2;SDS_P1;SDS_P2;PMS_P1;PMS_P2;Temp;Humidity;BMP_temperature;BMP_pressure;BME280_temperature;BME280_humidity;BME280_pressure;Samples;Min_cycle;Max_cycle;Signal;HPM_P1;HPM_P2
2023/08/23 00:01:53;;;;;;;79.20;29.67;;;21.20;17.30;;;;;;5060575;28;20395;-80
2023/08/23 00:04:19;;;;;;;80.23;31.13;;;21.10;17.50;;;;;;5060854;28;20910;-80
2023/08/23 00:06:45;;;;;;;82.30;31.80;;;21.10;18.20;;;;;;5060786;28;20389;-81
2023/08/23 00:09:11;;;;;;;79.73;32.90;;;21.00;18.70;;;;;;5060448;28;20442;-81
2023/08/23 00:11:37;;;;;;;80.93;29.60;;;21.00;19.20;;;;;;5060122;28;20398;-80
2023/08/23 00:14:03;;;;;;;79.90;32.33;;;20.90;20.20;;;;;;5060136;28;20431;-80
2023/08/23 00:16:29;;;;;;;83.63;31.20;;;20.90;19.30;;;;;;5058695;28;20410;-80
2023/08/23 00:18:55;;;;;;;79.17;31.63;;;20.90;19.50;;;;;;5059588;28;20161;-81
2023/08/23 00:21:21;;;;;;;78.87;25.70;;;20.90;19.50;;;;;;5060022;28;20399;-80
2023/08/23 00:23:46;;;;;;;79.60;29.77;;;20.90;20.00;;;;;;5041621;28;20481;-81
2023/08/23 00:26:12;;;;;;;78.77;26.13;;;20.90;21.20;;;;;;5059583;28;20267;-81
2023/08/23 00:28:39;;;;;;;81.07;25.90;;;20.90;20.40;;;;;;5042128;28;20214;-80
2023/08/23 00:31:05;;;;;;;77.90;23.30;;;20.80;19.90;;;;;;5059277;28;20485;-81
2023/08/23 00:33:30;;;;;;;76.63;20.10;;;20.80;22.80;;;;;;5041524;28;20419;-81
2023/08/23 00:35:57;;;;;;;76.27;22.40;;;20.80;24.70;;;;;;5059363;28;20232;-80
2023/08/23 00:38:22;;;;;;;75.80;21.10;;;20.80;24.50;;;;;;5059965;28;20224;-81
2023/08/23 00:40:48;;;;;;;76.27;22.53;;;20.80;24.70;;;;;;5059904;28;20423;-81
2023/08/23 00:43:14;;;;;;;76.90;23.80;;;20.80;22.80;;;;;;5060310;28;20199;-80
2023/08/23 00:45:41;;;;;;;78.30;27.80;;;20.80;23.70;;;;;;5060397;28;20694;-80
2023/08/23 00:48:09;;;;;;;75.10;20.40;;;20.70;23.40;;;;;;5059128;28;20175;-81
2023/08/23 00:50:35;;;;;;;80.03;25.10;;;20.70;24.10;;;;;;5058649;28;20426;-81
2023/08/23 00:53:06;;;;;;;81.83;22.37;;;20.70;23.80;;;;;;5042317;28;20446;-80
2023/08/23 00:55:32;;;;;;;74.63;19.83;;;20.60;25.70;;;;;;5059701;28;20422;-80
2023/08/23 00:57:58;;;;;;;77.90;19.23;;;20.60;25.70;;;;;;5059820;28;20889;-81
2023/08/23 01:00:26;;;;;;;77.90;23.50;;;20.60;25.40;;;;;;5059352;28;20437;-81
2023/08/23 01:02:52;;;;;;;78.20;25.57;;;20.60;24.60;;;;;;5058159;28;20505;-80
2023/08/23 01:05:18;;;;;;;79.27;20.93;;;20.60;24.40;;;;;;5058470;28;20435;-81
2023/08/23 01:08:02;;;;;;;77.73;25.87;;;20.50;25.50;;;;;;5123967;22;20607;-84
2023/08/23 01:10:39;;;;;;;75.57;18.17;;;20.50;25.60;;;;;;5059560;28;20427;-83
2023/08/23 01:13:26;;;;;;;76.23;22.70;;;20.50;24.30;;;;;;5059385;28;20376;-83
2023/08/23 01:15:55;;;;;;;77.67;22.17;;;20.50;25.20;;;;;;5059367;28;20380;-83
2023/08/23 01:18:23;;;;;;;77.27;20.30;;;20.40;25.10;;;;;;5059844;28;20388;-83
2023/08/23 01:20:51;;;;;;;76.07;21.00;;;20.40;25.50;;;;;;5059791;28;20508;-83
2023/08/23 01:23:18;;;;;;;76.17;20.83;;;20.40;25.30;;;;;;5059877;28;20395;-83
2023/08/23 01:25:50;;;;;;;75.70;20.17;;;20.40;24.20;;;;;;5059469;28;20388;-83
2023/08/23 01:28:16;;;;;;;74.70;18.50;;;20.40;25.00;;;;;;5059754;28;20768;-84
2023/08/23 01:30:42;;;;;;;77.70;20.97;;;20.40;25.30;;;;;;5058984;28;20420;-84
2023/08/23 01:33:18;;;;;;;77.30;21.20;;;20.40;24.10;;;;;;5059770;28;20497;-83
2023/08/23 01:35:59;;;;;;;77.87;21.27;;;20.30;24.90;;;;;;5058888;28;20834;-83
2023/08/23 01:38:28;;;;;;;75.17;19.33;;;20.30;24.90;;;;;;5059410;28;20822;-83
2023/08/23 01:40:55;;;;;;;81.50;20.57;;;20.30;26.80;;;;;;5040747;28;20425;-83
2023/08/23 01:43:21;;;;;;;78.93;20.70;;;20.20;25.20;;;;;;5059335;28;20404;-83
2023/08/23 01:45:47;;;;;;;75.17;18.50;;;20.20;25.50;;;;;;5059388;28;20420;-83
2023/08/23 01:48:12;;;;;;;75.83;19.33;;;20.20;25.90;;;;;;5059665;28;20426;-83
2023/08/23 01:50:39;;;;;;;78.80;24.80;;;20.20;25.10;;;;;;5059215;28;20559;-83
2023/08/23 01:53:05;;;;;;;78.90;21.67;;;20.10;25.50;;;;;;5059617;28;20161;-83
2023/08/23 01:55:30;;;;;;;76.10;20.47;;;20.10;26.00;;;;;;5058612;28;20394;-83
2023/08/23 01:57:57;;;;;;;78.43;20.83;;;20.10;25.60;;;;;;5040851;28;20293;-84
2023/08/23 02:00:23;;;;;;;76.77;19.73;;;20.10;26.40;;;;;;5058893;28;20182;-83
2023/08/23 02:02:56;;;;;;;77.93;23.03;;;20.10;25.40;;;;;;5058619;28;20398;-84
2023/08/23 02:05:22;;;;;;;75.57;19.33;;;20.10;25.30;;;;;;5058693;28;20427;-84
2023/08/23 02:07:47;;;;;;;75.10;19.00;;;20.00;25.70;;;;;;5058821;28;20815;-83
2023/08/23 02:10:13;;;;;;;74.80;18.00;;;19.90;25.80;;;;;;5059138;28;20271;-83
2023/08/23 02:12:40;;;;;;;78.07;18.23;;;19.90;25.60;;;;;;5059680;28;20157;-83
2023/08/23 02:15:06;;;;;;;76.30;19.17;;;19.90;26.10;;;;;;5040871;28;20167;-83
2023/08/23 02:17:32;;;;;;;78.30;20.53;;;19.80;25.40;;;;;;5058739;28;20406;-83
2023/08/23 02:19:58;;;;;;;77.77;18.80;;;19.80;28.10;;;;;;5058377;28;20433;-83
2023/08/23 02:22:23;;;;;;;78.00;18.77;;;19.70;29.60;;;;;;5058330;28;20655;-83
2023/08/23 02:24:49;;;;;;;81.00;19.13;;;19.80;28.70;;;;;;5058484;28;20174;-83
2023/08/23 02:27:15;;;;;;;76.13;20.40;;;19.70;29.80;;;;;;5057141;28;20265;-83
2023/08/23 02:29:40;;;;;;;76.67;20.13;;;19.70;29.00;;;;;;5057983;28;20656;-83
2023/08/23 02:32:06;;;;;;;76.93;18.30;;;19.70;27.70;;;;;;5040447;28;20194;-83
2023/08/23 02:34:31;;;;;;;79.17;20.60;;;19.70;26.40;;;;;;5039984;28;20250;-83
2023/08/23 02:36:57;;;;;;;78.50;18.90;;;19.70;28.00;;;;;;5039850;28;20171;-83
2023/08/23 02:39:23;;;;;;;75.50;19.43;;;19.70;27.60;;;;;;5057555;28;20218;-83
2023/08/23 02:41:48;;;;;;;80.77;21.67;;;19.60;28.10;;;;;;5057624;28;20172;-83
2023/08/23 02:44:14;;;;;;;76.17;20.47;;;19.70;28.30;;;;;;5057893;28;20164;-83
2023/08/23 02:46:40;;;;;;;78.60;18.77;;;19.60;28.80;;;;;;5057678;28;20191;-83
2023/08/23 02:49:05;;;;;;;74.93;18.80;;;19.70;27.30;;;;;;5039701;28;20171;-83
2023/08/23 02:51:31;;;;;;;77.67;18.57;;;19.60;25.80;;;;;;5057483;28;20169;-83
2023/08/23 02:53:56;;;;;;;79.73;21.20;;;19.60;27.30;;;;;;5058308;28;20221;-83
2023/08/23 02:56:22;;;;;;;79.37;22.97;;;19.50;27.70;;;;;;5056790;28;20532;-83
2023/08/23 02:58:48;;;;;;;75.17;18.90;;;19.50;29.10;;;;;;5057185;28;20169;-83
2023/08/23 03:01:14;;;;;;;76.63;20.57;;;19.50;28.50;;;;;;5057810;28;20172;-85
2023/08/23 03:03:40;;;;;;;77.37;20.90;;;19.50;29.00;;;;;;5057701;28;20177;-85
2023/08/23 03:06:06;;;;;;;76.47;21.07;;;19.50;27.50;;;;;;5039326;28;20543;-83
2023/08/23 03:08:31;;;;;;;76.77;21.67;;;19.50;26.20;;;;;;5057274;28;20177;-83
2023/08/23 03:11:04;;;;;;;77.57;19.97;;;19.40;27.30;;;;;;5057920;28;20490;-85
2023/08/23 03:13:30;;;;;;;78.20;21.97;;;19.40;27.60;;;;;;5057312;28;20158;-85
2023/08/23 03:15:56;;;;;;;77.70;23.20;;;19.40;26.70;;;;;;5057312;28;20420;-85
2023/08/23 03:18:22;;;;;;;78.60;21.83;;;19.40;27.80;;;;;;5058029;28;20403;-85
2023/08/23 03:20:51;;;;;;;80.27;23.47;;;19.30;28.10;;;;;;5057215;28;20187;-85
2023/08/23 03:23:20;;;;;;;82.30;22.87;;;19.30;27.70;;;;;;5057399;28;20396;-85
2023/08/23 03:25:46;;;;;;;78.60;23.27;;;19.30;28.10;;;;;;5057190;28;20399;-85
2023/08/23 03:28:13;;;;;;;80.33;24.13;;;19.20;28.90;;;;;;5057125;28;20842;-85
2023/08/23 03:30:39;;;;;;;78.80;24.60;;;19.20;29.10;;;;;;5057577;28;20435;-85
2023/08/23 03:33:05;;;;;;;76.30;24.07;;;19.20;29.40;;;;;;5057432;28;20434;-85
2023/08/23 03:35:31;;;;;;;80.67;23.93;;;19.20;28.80;;;;;;5056932;28;20435;-85
2023/08/23 03:37:57;;;;;;;78.83;23.17;;;19.20;28.40;;;;;;5057631;28;20758;-85
2023/08/23 03:40:22;;;;;;;78.57;26.23;;;19.20;26.80;;;;;;5059927;28;20517;-85
2023/08/23 03:42:48;;;;;;;80.83;27.00;;;19.10;28.60;;;;;;5060359;28;20257;-85
2023/08/23 03:45:15;;;;;;;78.17;23.97;;;19.10;29.20;;;;;;5060979;28;20364;-85
2023/08/23 03:47:41;;;;;;;76.47;23.57;;;19.10;29.90;;;;;;5060635;28;20219;-85
2023/08/23 03:50:07;;;;;;;79.93;26.80;;;19.00;30.90;;;;;;5060927;28;20478;-85
2023/08/23 03:52:33;;;;;;;83.17;33.00;;;19.10;29.40;;;;;;5042272;28;20652;-85
2023/08/23 03:54:58;;;;;;;77.83;23.20;;;19.00;30.40;;;;;;5042435;28;20802;-85
2023/08/23 03:57:24;;;;;;;81.23;28.80;;;19.00;28.90;;;;;;5060580;28;20169;-86
2023/08/23 03:59:49;;;;;;;78.93;24.27;;;19.00;30.30;;;;;;5060769;28;20234;-85
2023/08/23 04:02:15;;;;;;;80.23;31.57;;;18.90;29.30;;;;;;5060956;28;20171;-85
2023/08/23 04:04:41;;;;;;;79.33;30.50;;;18.90;30.00;;;;;;5060370;28;20176;-85
2023/08/23 04:07:08;;;;;;;80.07;31.83;;;18.90;32.00;;;;;;5041879;28;20190;-85
2023/08/23 04:09:36;;;;;;;81.47;29.53;;;18.90;30.30;;;;;;5060153;28;20193;-85
2023/08/23 04:12:02;;;;;;;84.13;33.97;;;18.80;32.20;;;;;;5060276;28;20410;-85
2023/08/23 04:14:27;;;;;;;82.53;31.47;;;18.80;31.90;;;;;;5059988;28;20391;-85
2023/08/23 04:16:53;;;;;;;82.60;33.77;;;18.80;31.90;;;;;;5059945;28;20169;-85
2023/08/23 04:19:19;;;;;;;84.00;35.30;;;18.80;31.90;;;;;;5059864;28;20717;-85
2023/08/23 04:21:48;;;;;;;82.53;37.33;;;18.80;32.10;;;;;;5059380;28;20166;-85
2023/08/23 04:24:15;;;;;;;87.13;44.07;;;18.80;33.20;;;;;;5059540;28;20169;-85
2023/08/23 04:26:41;;;;;;;85.23;41.67;;;18.80;34.80;;;;;;5059437;28;20526;-84
2023/08/23 04:29:06;;;;;;;84.13;39.40;;;18.80;35.10;;;;;;5059886;28;20415;-86
2023/08/23 04:31:32;;;;;;;83.40;37.87;;;18.80;33.70;;;;;;5041513;28;20172;-85
2023/08/23 04:33:58;;;;;;;85.37;44.73;;;18.80;34.20;;;;;;5059538;28;20532;-85
2023/08/23 04:36:23;;;;;;;89.47;51.40;;;18.80;35.40;;;;;;5059728;28;20166;-85
2023/08/23 04:38:49;;;;;;;90.07;53.90;;;18.70;37.40;;;;;;5041076;28;20640;-85
2023/08/23 04:41:15;;;;;;;89.33;49.87;;;18.70;37.70;;;;;;5042288;28;20191;-85
2023/08/23 04:43:40;;;;;;;97.00;59.87;;;18.70;39.70;;;;;;5059943;28;20172;-85
2023/08/23 04:46:07;;;;;;;91.57;56.40;;;18.70;40.10;;;;;;5059862;28;20192;-85
2023/08/23 04:48:32;;;;;;;92.33;55.63;;;18.80;42.00;;;;;;5059128;28;20161;-85
2023/08/23 04:50:58;;;;;;;90.53;57.03;;;18.80;43.60;;;;;;5040237;28;20462;-85
2023/08/23 04:53:25;;;;;;;91.17;59.77;;;18.80;41.60;;;;;;5042080;28;20499;-85
2023/08/23 04:55:58;;;;;;;89.90;57.10;;;18.70;43.50;;;;;;5041147;28;20399;-85
2023/08/23 04:58:29;;;;;;;90.87;57.80;;;18.80;42.60;;;;;;5041676;28;20767;-85
2023/08/23 05:00:58;;;;;;;91.20;57.30;;;18.80;42.30;;;;;;5057567;28;20918;-85
2023/08/23 05:03:25;;;;;;;89.10;55.20;;;18.80;43.30;;;;;;5059227;28;20399;-85
2023/08/23 05:05:51;;;;;;;90.53;56.43;;;18.70;44.80;;;;;;5059585;28;20400;-85
2023/08/23 05:08:17;;;;;;;92.00;58.00;;;18.70;46.30;;;;;;5059260;28;20415;-85
2023/08/23 05:10:42;;;;;;;91.33;61.00;;;18.70;49.40;;;;;;5058744;28;20473;-85
2023/08/23 05:13:09;;;;;;;90.17;52.57;;;18.70;49.40;;;;;;5059475;28;20255;-85
2023/08/23 05:15:34;;;;;;;95.37;64.27;;;18.70;50.10;;;;;;5040882;28;20172;-85
2023/08/23 05:18:00;;;;;;;91.07;60.37;;;18.70;52.20;;;;;;5058774;28;20407;-85
2023/08/23 05:20:28;;;;;;;91.30;58.23;;;18.80;53.10;;;;;;5059114;28;20185;-85
2023/08/23 05:22:54;;;;;;;94.47;69.90;;;18.80;55.10;;;;;;5039653;28;20208;-86
2023/08/23 05:25:20;;;;;;;93.03;65.57;;;18.80;56.60;;;;;;5057443;28;20403;-86
2023/08/23 05:27:45;;;;;;;90.70;60.40;;;18.80;57.20;;;;;;5039346;28;20180;-86
2023/08/23 05:30:11;;;;;;;93.87;64.77;;;18.90;57.00;;;;;;5057078;28;20184;-85
2023/08/23 05:32:37;;;;;;;93.63;64.67;;;18.90;58.50;;;;;;5038714;28;20167;-85
2023/08/23 05:35:03;;;;;;;103.70;78.40;;;18.90;59.50;;;;;;5056311;28;20909;-85
2023/08/23 05:37:29;;;;;;;91.73;56.40;;;18.90;62.50;;;;;;5038344;28;20164;-85
2023/08/23 05:39:54;;;;;;;96.17;71.77;;;18.90;66.60;;;;;;5055553;28;20411;-85
2023/08/23 05:42:20;;;;;;;99.33;80.67;;;18.90;68.90;;;;;;5055920;28;20168;-85
2023/08/23 05:44:46;;;;;;;103.37;82.07;;;19.00;71.70;;;;;;5038436;28;20176;-85
2023/08/23 05:47:11;;;;;;;109.60;94.37;;;18.90;82.80;;;;;;5055611;28;20209;-85
2023/08/23 05:49:37;;;;;;;105.73;90.20;;;18.90;80.90;;;;;;5055321;28;20173;-85
2023/08/23 05:52:03;;;;;;;107.03;94.47;;;18.90;90.00;;;;;;5056267;28;20149;-84
2023/08/23 05:54:31;;;;;;;112.60;100.90;;;18.90;92.70;;;;;;5056282;28;20513;-82
2023/08/23 05:56:59;;;;;;;108.40;96.77;;;18.80;95.20;;;;;;5056400;28;20676;-85
2023/08/23 05:59:25;;;;;;;115.47;103.47;;;18.90;97.70;;;;;;5056329;28;20430;-85
2023/08/23 06:01:51;;;;;;;122.60;110.00;;;18.90;99.00;;;;;;5056114;28;20426;-85
2023/08/23 06:04:17;;;;;;;129.73;117.17;;;18.90;99.20;;;;;;5055835;28;20408;-84
2023/08/23 06:06:42;;;;;;;134.00;121.13;;;18.90;99.90;;;;;;5055536;28;20192;-85
2023/08/23 06:09:08;;;;;;;128.83;116.50;;;19.00;99.90;;;;;;5055597;28;20203;-84
2023/08/23 06:11:34;;;;;;;138.10;125.07;;;19.00;99.90;;;;;;5055819;28;20197;-85
2023/08/23 06:14:14;;;;;;;127.10;114.60;;;19.00;99.90;;;;;;5055258;28;20154;-85
2023/08/23 06:16:40;;;;;;;137.87;124.43;;;19.00;99.90;;;;;;5055503;28;20152;-85
2023/08/23 06:19:06;;;;;;;134.37;121.73;;;19.00;99.90;;;;;;5055858;28;20399;-85
2023/08/23 06:21:31;;;;;;;140.47;127.37;;;19.00;99.90;;;;;;5055674;28;20298;-85
2023/08/23 06:23:57;;;;;;;135.53;122.70;;;19.00;99.90;;;;;;5055317;28;20249;-85
2023/08/23 06:26:22;;;;;;;127.37;114.97;;;19.10;99.90;;;;;;5054384;28;20184;-84
2023/08/23 06:28:48;;;;;;;127.77;115.43;;;19.00;99.90;;;;;;5054779;28;20690;-84
2023/08/23 06:31:20;;;;;;;128.17;115.37;;;19.00;99.90;;;;;;5055275;28;20160;-83
2023/08/23 06:33:46;;;;;;;142.77;129.70;;;19.00;99.90;;;;;;5037313;28;20168;-84
2023/08/23 06:36:11;;;;;;;129.90;117.63;;;19.10;99.90;;;;;;5054910;28;20407;-84
2023/08/23 06:38:37;;;;;;;132.17;119.67;;;19.20;99.90;;;;;;5055170;28;20600;-84
2023/08/23 06:41:03;;;;;;;118.93;106.97;;;19.20;99.90;;;;;;5054848;28;20553;-84
2023/08/23 06:43:28;;;;;;;124.33;111.60;;;19.20;99.90;;;;;;5055188;28;20181;-84
2023/08/23 06:45:54;;;;;;;124.43;111.87;;;19.20;99.90;;;;;;5054774;28;20163;-84
2023/08/23 06:48:20;;;;;;;121.97;109.73;;;19.10;99.90;;;;;;5055313;28;20168;-84
2023/08/23 06:50:46;;;;;;;127.00;114.73;;;19.20;99.90;;;;;;5055336;28;20180;-84
2023/08/23 06:53:11;;;;;;;114.30;102.40;;;19.30;99.90;;;;;;5036916;28;20405;-84
2023/08/23 06:55:41;;;;;;;131.10;118.23;;;19.40;99.90;;;;;;5055138;28;20169;-84
2023/08/23 06:58:10;;;;;;;115.57;103.73;;;19.40;99.90;;;;;;5054694;28;20291;-84
2023/08/23 07:00:36;;;;;;;124.37;111.90;;;19.40;99.90;;;;;;5037078;28;20458;-84
2023/08/23 07:03:02;;;;;;;124.80;111.63;;;19.50;99.90;;;;;;5054917;28;20433;-84
2023/08/23 07:05:28;;;;;;;122.43;110.03;;;19.60;99.90;;;;;;5054512;28;20811;-83
2023/08/23 07:07:54;;;;;;;127.77;114.97;;;19.60;99.90;;;;;;5051905;23;21044;-82
2023/08/23 07:10:20;;;;;;;122.43;110.03;;;19.50;99.90;;;;;;5064165;28;20431;-82
2023/08/23 07:12:46;;;;;;;131.13;118.73;;;19.50;99.90;;;;;;5063668;28;20161;-82
2023/08/23 07:15:11;;;;;;;127.30;115.00;;;19.60;99.90;;;;;;5067891;28;20395;-82
2023/08/23 07:17:38;;;;;;;125.13;111.77;;;19.70;99.90;;;;;;5067876;28;20171;-82
2023/08/23 07:20:05;;;;;;;124.37;111.47;;;19.70;99.90;;;;;;5050844;28;20254;-83
2023/08/23 07:22:31;;;;;;;120.00;107.73;;;19.80;99.90;;;;;;5067157;28;20407;-82
2023/08/23 07:24:56;;;;;;;105.83;92.83;;;19.80;99.90;;;;;;5067484;28;20482;-82
2023/08/23 07:27:22;;;;;;;138.90;124.80;;;19.90;99.90;;;;;;5067651;28;20246;-82
2023/08/23 07:29:50;;;;;;;140.33;126.23;;;19.90;99.90;;;;;;5049596;28;20184;-82
2023/08/23 07:32:16;;;;;;;116.67;104.03;;;19.90;99.90;;;;;;5067143;28;20177;-82
2023/08/23 07:34:42;;;;;;;132.97;119.37;;;20.00;99.90;;;;;;5067712;28;20396;-82
2023/08/23 07:37:07;;;;;;;130.03;117.03;;;20.00;99.90;;;;;;5066612;28;20189;-82
2023/08/23 07:39:33;;;;;;;133.50;119.37;;;20.10;99.90;;;;;;5066577;28;20185;-82
2023/08/23 07:41:59;;;;;;;126.87;113.73;;;20.20;99.90;;;;;;5066991;28;20199;-83
2023/08/23 07:44:24;;;;;;;132.23;118.10;;;20.20;99.90;;;;;;5067380;28;20171;-82
2023/08/23 07:46:50;;;;;;;133.63;119.53;;;20.20;99.90;;;;;;5067672;28;20189;-82
2023/08/23 07:49:16;;;;;;;136.80;122.30;;;20.20;99.90;;;;;;5067064;28;20181;-82
2023/08/23 07:51:44;;;;;;;139.30;125.10;;;20.30;99.90;;;;;;5067188;28;20161;-82
2023/08/23 07:54:11;;;;;;;126.60;112.80;;;20.30;99.90;;;;;;5068158;28;20501;-82
2023/08/23 07:56:37;;;;;;;132.77;119.03;;;20.40;99.90;;;;;;5049088;28;20425;-82
2023/08/23 07:59:03;;;;;;;146.47;131.60;;;20.50;99.90;;;;;;5067214;28;20405;-82
2023/08/23 08:01:28;;;;;;;131.00;116.93;;;20.50;99.90;;;;;;5068234;28;20174;-82
2023/08/23 08:03:54;;;;;;;136.93;123.03;;;20.50;99.90;;;;;;5049996;28;20643;-82
2023/08/23 08:06:20;;;;;;;124.50;108.73;;;20.50;99.90;;;;;;5067110;28;20278;-82
2023/08/23 08:08:45;;;;;;;132.17;117.70;;;20.60;99.90;;;;;;5067611;28;20182;-82
2023/08/23 08:11:12;;;;;;;137.63;122.70;;;20.70;99.90;;;;;;5067233;28;20204;-82
2023/08/23 08:13:38;;;;;;;127.47;110.90;;;20.80;99.90;;;;;;5066072;28;20189;-82
2023/08/23 08:16:12;;;;;;;140.37;126.27;;;20.90;99.90;;;;;;5048980;28;20407;-83
2023/08/23 08:18:39;;;;;;;132.57;118.97;;;20.90;99.90;;;;;;5066760;28;20470;-82
2023/08/23 08:21:05;;;;;;;121.47;108.43;;;21.00;99.90;;;;;;5067778;28;20987;-82
2023/08/23 08:23:31;;;;;;;120.93;97.37;;;21.10;92.60;;;;;;5067120;28;20397;-82
2023/08/23 08:25:57;;;;;;;103.63;64.53;;;21.20;94.30;;;;;;5045857;28;20158;-82
2023/08/23 08:28:23;;;;;;;92.10;44.37;;;21.30;92.10;;;;;;5065862;28;20434;-82
2023/08/23 08:30:49;;;;;;;108.77;55.83;;;21.30;91.30;;;;;;5208795;22;20498;-82
2023/08/23 08:33:16;;;;;;;97.60;57.23;;;21.30;90.80;;;;;;5045977;28;20403;-82
2023/08/23 08:35:43;;;;;;;98.30;64.07;;;21.40;91.00;;;;;;5065159;28;20187;-82
2023/08/23 08:38:09;;;;;;;92.43;31.53;;;21.50;90.20;;;;;;5065828;28;20396;-82
2023/08/23 08:40:37;;;;;;;87.10;34.40;;;21.50;72.20;;;;;;5062286;28;20437;-83
2023/08/23 08:43:03;;;;;;;92.20;31.93;;;21.60;77.20;;;;;;5062514;28;20393;-82
2023/08/23 08:45:29;;;;;;;90.57;31.10;;;21.70;65.10;;;;;;5062930;28;20426;-82
2023/08/23 08:47:55;;;;;;;89.83;37.70;;;21.80;64.90;;;;;;5064196;28;20461;-82
2023/08/23 08:50:21;;;;;;;89.53;32.37;;;21.90;70.80;;;;;;5064739;28;20443;-82
2023/08/23 08:52:53;;;;;;;88.37;32.17;;;22.00;51.50;;;;;;5064372;28;20644;-82
2023/08/23 08:55:21;;;;;;;83.30;22.50;;;22.00;58.40;;;;;;5062431;28;20906;-83
2023/08/23 08:57:52;;;;;;;84.67;21.47;;;22.10;57.20;;;;;;5063201;28;20400;-82
2023/08/23 09:00:21;;;;;;;82.77;18.63;;;22.20;44.30;;;;;;5064421;28;20458;-83
2023/08/23 09:02:50;;;;;;;83.33;20.97;;;22.20;48.60;;;;;;5061936;28;20407;-83
2023/08/23 09:05:16;;;;;;;87.03;19.83;;;22.20;53.50;;;;;;5062288;28;20483;-82
2023/08/23 09:07:45;;;;;;;80.83;20.20;;;22.30;43.70;;;;;;5062918;28;20442;-82
2023/08/23 09:10:11;;;;;;;84.60;19.80;;;22.40;42.00;;;;;;5061843;28;20489;-81
2023/08/23 09:12:37;;;;;;;85.00;23.30;;;22.40;39.10;;;;;;5062971;28;20407;-83
2023/08/23 09:15:04;;;;;;;85.90;21.70;;;22.40;32.40;;;;;;5047745;28;20964;-83
2023/08/23 09:17:33;;;;;;;81.27;20.60;;;22.50;43.80;;;;;;5063553;28;20525;-82
2023/08/23 09:19:59;;;;;;;84.97;19.70;;;22.60;25.30;;;;;;5046589;28;20815;-81
2023/08/23 09:22:25;;;;;;;84.33;19.93;;;22.80;33.50;;;;;;5046632;28;20411;-83
2023/08/23 09:24:50;;;;;;;84.47;19.50;;;22.90;26.60;;;;;;5064735;28;20434;-82
2023/08/23 09:27:20;;;;;;;88.10;22.40;;;23.00;32.90;;;;;;5046129;28;20687;-83
2023/08/23 09:29:46;;;;;;;78.27;21.53;;;23.10;31.40;;;;;;5044732;28;20254;-83
2023/08/23 09:32:15;;;;;;;80.87;22.40;;;23.10;26.60;;;;;;5064516;28;20470;-83
2023/08/23 09:34:40;;;;;;;81.67;22.53;;;23.20;26.00;;;;;;5060918;28;20263;-82
2023/08/23 09:37:10;;;;;;;82.27;21.90;;;23.40;25.00;;;;;;5062145;28;20465;-83
2023/08/23 09:39:38;;;;;;;80.37;19.03;;;23.50;21.00;;;;;;5060480;28;20181;-82
2023/08/23 09:42:13;;;;;;;80.23;15.37;;;23.50;6.60;;;;;;5059780;28;20430;-82
2023/08/23 09:44:43;;;;;;;82.03;15.60;;;23.50;1.00;;;;;;5059482;28;20393;-82
2023/08/23 09:47:16;;;;;;;81.60;16.03;;;23.60;1.90;;;;;;5040855;28;20447;-82
2023/08/23 09:49:44;;;;;;;78.20;10.30;;;23.70;1.00;;;;;;5059592;28;20411;-83
2023/08/23 09:52:13;;;;;;;79.67;12.27;;;23.80;1.00;;;;;;5041872;28;20834;-82
2023/08/23 09:55:03;;;;;;;73.23;7.97;;;24.00;1.00;;;;;;5059528;28;20416;-82
2023/08/23 09:57:30;;;;;;;73.90;7.80;;;24.00;1.00;;;;;;5058959;28;20486;-82
2023/08/23 09:59:56;;;;;;;74.00;8.43;;;24.10;1.00;;;;;;5058857;28;20430;-81
2023/08/23 10:02:23;;;;;;;76.63;8.23;;;24.20;1.00;;;;;;5057269;28;20400;-81
2023/08/23 10:04:50;;;;;;;77.20;7.40;;;24.30;1.00;;;;;;5057874;28;20461;-81
2023/08/23 10:07:16;;;;;;;78.93;7.50;;;24.50;1.00;;;;;;5057190;28;21000;-81
2023/08/23 10:09:43;;;;;;;75.03;7.63;;;24.60;1.00;;;;;;5058732;28;20418;-81
2023/08/23 10:12:11;;;;;;;76.97;8.30;;;24.60;1.00;;;;;;5040740;28;20407;-81
2023/08/23 10:14:40;;;;;;;78.03;7.03;;;24.80;1.00;;;;;;5058379;28;20403;-81
2023/08/23 10:17:09;;;;;;;75.30;8.83;;;25.00;1.00;;;;;;5057123;28;20395;-81
2023/08/23 10:19:35;;;;;;;77.73;11.53;;;25.10;1.00;;;;;;5057139;28;20423;-81
2023/08/23 10:22:00;;;;;;;75.20;12.93;;;25.40;1.00;;;;;;5059189;28;20396;-81
2023/08/23 10:24:31;;;;;;;82.40;25.40;;;25.70;1.00;;;;;;5058761;28;20604;-81
2023/08/23 10:27:06;;;;;;;82.00;25.93;;;25.90;1.00;;;;;;5058535;28;20201;-81
2023/08/23 10:29:32;;;;;;;84.37;30.97;;;26.10;1.00;;;;;;5058862;28;20412;-83
2023/08/23 10:31:57;;;;;;;77.57;16.93;;;26.20;1.00;;;;;;5062880;28;20388;-83
2023/08/23 10:34:25;;;;;;;77.27;17.33;;;26.30;1.00;;;;;;5062656;28;20190;-83
2023/08/23 10:36:53;;;;;;;82.60;24.77;;;26.50;1.00;;;;;;5062650;28;20171;-83
2023/08/23 10:39:22;;;;;;;75.10;12.53;;;26.60;1.00;;;;;;5045417;28;20465;-83
2023/08/23 10:41:51;;;;;;;72.60;6.70;;;26.90;1.00;;;;;;5062659;28;20470;-83
2023/08/23 10:44:17;;;;;;;71.30;4.80;;;27.10;1.00;;;;;;5062267;28;20402;-83
2023/08/23 10:46:46;;;;;;;73.40;5.60;;;27.20;1.00;;;;;;5044672;28;20451;-83
2023/08/23 10:49:13;;;;;;;73.07;6.63;;;27.40;1.00;;;;;;5046185;28;20254;-83
2023/08/23 10:51:42;;;;;;;73.57;6.77;;;27.50;1.00;;;;;;5050845;28;20407;-84
2023/08/23 10:54:14;;;;;;;72.70;5.30;;;27.60;1.00;;;;;;5066877;28;20407;-83
2023/08/23 10:56:40;;;;;;;75.93;6.10;;;27.50;1.00;;;;;;5063689;28;20391;-81
2023/08/23 10:59:08;;;;;;;76.13;6.60;;;27.40;1.00;;;;;;5061347;28;20502;-81
2023/08/23 11:01:39;;;;;;;72.13;3.87;;;27.40;1.00;;;;;;5061878;28;20410;-81
2023/08/23 11:04:08;;;;;;;71.47;3.43;;;27.40;1.00;;;;;;5044279;28;20463;-81
2023/08/23 11:06:35;;;;;;;79.40;4.90;;;27.30;1.00;;;;;;5044750;28;20454;-81
2023/08/23 11:09:01;;;;;;;73.27;3.43;;;27.40;1.00;;;;;;5043949;28;20403;-81
2023/08/23 11:11:30;;;;;;;73.67;3.47;;;27.60;1.00;;;;;;5062440;28;20409;-81
2023/08/23 11:13:56;;;;;;;72.37;3.83;;;27.90;1.00;;;;;;5044070;28;20417;-82
2023/08/23 11:16:23;;;;;;;71.80;3.77;;;28.00;1.00;;;;;;5062354;28;20407;-81
2023/08/23 11:18:49;;;;;;;71.30;3.93;;;28.10;1.00;;;;;;5062700;28;20184;-81
2023/08/23 11:21:16;;;;;;;76.60;4.10;;;28.20;1.00;;;;;;5061793;28;20402;-81
2023/08/23 11:23:41;;;;;;;73.40;4.97;;;28.30;1.00;;;;;;5062661;28;20407;-82
2023/08/23 11:26:07;;;;;;;74.97;5.60;;;28.30;1.00;;;;;;5063705;28;20402;-82
2023/08/23 11:28:33;;;;;;;73.37;7.50;;;28.70;1.00;;;;;;5062429;28;20161;-82
2023/08/23 11:30:59;;;;;;;72.77;7.00;;;29.00;1.00;;;;;;5063195;28;20204;-82
2023/08/23 11:33:25;;;;;;;76.03;6.43;;;29.10;1.00;;;;;;5063010;28;20164;-82
2023/08/23 11:35:51;;;;;;;73.40;5.20;;;29.20;1.00;;;;;;5044130;28;20403;-83
2023/08/23 11:38:17;;;;;;;72.37;5.00;;;29.00;1.00;;;;;;5063324;28;20403;-83
2023/08/23 11:40:46;;;;;;;74.80;5.00;;;28.70;1.00;;;;;;5045684;28;20437;-81
2023/08/23 11:43:16;;;;;;;74.07;4.27;;;28.60;1.00;;;;;;5046389;28;20425;-83
2023/08/23 11:45:42;;;;;;;72.20;4.27;;;28.50;1.00;;;;;;5062916;28;20492;-82
2023/08/23 11:48:10;;;;;;;72.60;4.97;;;28.60;1.00;;;;;;5045133;28;20544;-83
2023/08/23 11:50:41;;;;;;;76.07;4.70;;;28.70;1.00;;;;;;5062068;28;20188;-83
2023/08/23 11:53:06;;;;;;;75.67;4.73;;;28.70;1.00;;;;;;5062161;28;20384;-82
2023/08/23 11:55:34;;;;;;;82.77;5.93;;;28.90;1.00;;;;;;5062959;28;20760;-82
2023/08/23 11:57:59;;;;;;;73.67;4.67;;;29.20;1.00;;;;;;5063297;28;20169;-83
2023/08/23 12:00:25;;;;;;;74.80;6.90;;;29.30;1.00;;;;;;5063570;28;20930;-83
2023/08/23 12:02:52;;;;;;;76.27;6.70;;;29.50;1.00;;;;;;5063532;28;20564;-83
2023/08/23 12:05:19;;;;;;;74.30;5.10;;;29.80;1.00;;;;;;5062684;28;20407;-82
2023/08/23 12:07:48;;;;;;;73.33;4.43;;;29.90;1.00;;;;;;5061555;28;20451;-82
2023/08/23 12:10:14;;;;;;;74.40;5.07;;;29.80;1.00;;;;;;5061369;28;20423;-83
2023/08/23 12:12:42;;;;;;;73.40;5.00;;;29.90;1.00;;;;;;5044149;28;20748;-83
2023/08/23 12:15:08;;;;;;;73.17;4.30;;;29.90;1.00;;;;;;5063171;28;20407;-82
2023/08/23 12:17:34;;;;;;;73.27;5.03;;;30.00;1.00;;;;;;5062323;28;21004;-82
2023/08/23 12:20:00;;;;;;;74.03;4.70;;;30.20;1.00;;;;;;5044086;28;21070;-83
2023/08/23 12:22:26;;;;;;;73.63;4.77;;;30.20;1.00;;;;;;5062183;28;20165;-83
2023/08/23 12:24:52;;;;;;;72.70;5.03;;;30.30;1.00;;;;;;5063176;28;20172;-83